Time,TemperatureF,DewpointF,PressureIn,WindDirection,WindDirectionDegrees,WindSpeedMPH,WindSpeedGustMPH,Humidity,HourlyPrecipIn,Conditions,Clouds,dailyrainin,SoftwareType,DateUTC
2013-01-24 00:02:00,34.0,22.0,-100.00,NW,306,1.0,3.0,60,-99.99,,,-99.99,,2013-01-24 08:02:00,
2013-01-24 00:12:00,35.0,21.0,-100.00,North,7,1.0,3.0,56,-99.99,,,-99.99,,2013-01-24 08:12:00,
2013-01-24 00:22:00,35.0,21.0,-100.00,NNW,337,1.0,2.0,57,-99.99,,,-99.99,,2013-01-24 08:22:00,
2013-01-24 00:32:00,34.0,21.0,-100.00,NNW,330,1.0,3.0,58,-99.99,,,-99.99,,2013-01-24 08:32:00,
2013-01-24 00:42:00,34.0,22.0,-100.00,NNW,339,2.0,3.0,61,-99.99,,,-99.99,,2013-01-24 08:42:00,
2013-01-24 00:52:00,34.0,21.0,-100.00,NNW,332,1.0,4.0,59,-99.99,,,-99.99,,2013-01-24 08:52:00,
2013-01-24 01:02:00,35.0,21.0,-100.00,WSW,258,0.0,3.0,55,-99.99,,,-99.99,,2013-01-24 09:02:00,
2013-01-24 01:12:00,36.0,20.0,-100.00,NW,311,1.0,4.0,53,-99.99,,,-99.99,,2013-01-24 09:12:00,
2013-01-24 01:22:00,36.0,21.0,-100.00,SSW,198,1.0,6.0,53,-99.99,,,-99.99,,2013-01-24 09:22:00,
2013-01-24 01:32:00,36.0,21.0,-100.00,SSE,164,1.0,4.0,53,-99.99,,,-99.99,,2013-01-24 09:32:00,
2013-01-24 01:42:00,36.0,20.0,-100.00,South,178,0.0,3.0,52,-99.99,,,-99.99,,2013-01-24 09:42:00,
2013-01-24 01:52:00,36.0,20.0,-100.00,SSE,158,0.0,4.0,53,-99.99,,,-99.99,,2013-01-24 09:52:00,
2013-01-24 02:02:00,36.0,20.0,-100.00,SSE,158,0.0,4.0,53,-99.99,,,-99.99,,2013-01-24 10:02:00,
2013-01-24 02:12:00,36.0,20.0,-100.00,West,280,0.0,3.0,51,-99.99,,,-99.99,,2013-01-24 10:12:00,
2013-01-24 02:22:00,36.0,20.0,-100.00,SSW,212,4.0,8.0,51,-99.99,,,-99.99,,2013-01-24 10:22:00,
2013-01-24 02:33:00,36.0,20.0,-100.00,SSW,212,4.0,7.0,51,-99.99,,,-99.99,,2013-01-24 10:33:00,
2013-01-24 02:42:00,36.0,20.0,-100.00,South,189,3.0,7.0,51,-99.99,,,-99.99,,2013-01-24 10:42:00,
2013-01-24 02:52:00,36.0,20.0,-100.00,South,189,3.0,7.0,51,-99.99,,,-99.99,,2013-01-24 10:52:00,
2013-01-24 03:02:00,37.0,20.0,-100.00,SSW,195,4.0,8.0,51,-99.99,,,-99.99,,2013-01-24 11:02:00,
2013-01-24 03:12:00,37.0,20.0,-100.00,SSW,202,4.0,10.0,51,-99.99,,,-99.99,,2013-01-24 11:12:00,
2013-01-24 03:22:00,37.0,20.0,-100.00,SSW,209,6.0,13.0,50,-99.99,,,-99.99,,2013-01-24 11:22:00,
2013-01-24 03:32:00,37.0,20.0,-100.00,SSW,205,4.0,9.0,51,-99.99,,,-99.99,,2013-01-24 11:32:00,
2013-01-24 03:42:00,36.0,21.0,-100.00,SSW,199,4.0,8.0,53,-99.99,,,-99.99,,2013-01-24 11:42:00,
2013-01-24 03:52:00,37.0,21.0,-100.00,South,189,4.0,9.0,53,-99.99,,,-99.99,,2013-01-24 11:52:00,
2013-01-24 04:03:00,37.0,23.0,-100.00,South,185,5.0,11.0,55,-99.99,,,-99.99,,2013-01-24 12:03:00,
2013-01-24 04:12:00,38.0,26.0,-100.00,South,182,8.0,21.0,60,-99.99,,,-99.99,,2013-01-24 12:12:00,
2013-01-24 04:22:00,38.0,23.0,-100.00,South,182,9.0,22.0,55,-99.99,,,-99.99,,2013-01-24 12:22:00,
2013-01-24 04:32:00,38.0,24.0,-100.00,South,184,11.0,21.0,58,-99.99,,,-99.99,,2013-01-24 12:32:00,
2013-01-24 04:42:00,37.0,25.0,-100.00,South,191,11.0,19.0,61,-99.99,,,-99.99,,2013-01-24 12:42:00,
2013-01-24 04:52:00,36.0,23.0,-100.00,SSW,195,8.0,19.0,59,-99.99,,,-99.99,,2013-01-24 12:52:00,
2013-01-24 05:02:00,36.0,26.0,-100.00,SSW,193,9.0,20.0,67,-99.99,,,-99.99,,2013-01-24 13:02:00,
2013-01-24 05:12:00,35.0,24.0,-100.00,SSW,196,8.0,13.0,63,-99.99,,,-99.99,,2013-01-24 13:12:00,
2013-01-24 05:22:00,35.0,25.0,-100.00,SSW,198,8.0,16.0,67,-99.99,,,-99.99,,2013-01-24 13:22:00,
2013-01-24 05:32:00,35.0,25.0,-100.00,SSW,198,8.0,16.0,67,-99.99,,,-99.99,,2013-01-24 13:32:00,
2013-01-24 05:42:00,35.0,25.0,-100.00,SSW,198,8.0,16.0,67,-99.99,,,-99.99,,2013-01-24 13:42:00,
2013-01-24 05:52:00,32.0,29.0,-100.00,South,184,7.0,13.0,85,-99.99,,,-99.99,,2013-01-24 13:52:00,
2013-01-24 06:02:00,32.0,29.0,-100.00,South,184,7.0,13.0,85,-99.99,,,-99.99,,2013-01-24 14:02:00,
2013-01-24 06:12:00,32.0,29.0,-100.00,SSW,212,3.0,6.0,89,-99.99,,,-99.99,,2013-01-24 14:12:00,
2013-01-24 06:22:00,32.0,29.0,-100.00,SSW,200,3.0,6.0,90,-99.99,,,-99.99,,2013-01-24 14:22:00,
2013-01-24 06:33:00,32.0,29.0,-100.00,South,191,3.0,6.0,91,-99.99,,,-99.99,,2013-01-24 14:33:00,
2013-01-24 06:43:00,32.0,29.0,-100.00,SSE,162,2.0,4.0,91,-99.99,,,-99.99,,2013-01-24 14:43:00,
2013-01-24 06:53:00,32.0,29.0,-100.00,SSE,160,1.0,3.0,92,-99.99,,,-99.99,,2013-01-24 14:53:00,
2013-01-24 07:03:00,32.0,30.0,-100.00,SSE,164,2.0,4.0,92,-99.99,,,-99.99,,2013-01-24 15:03:00,
2013-01-24 07:12:00,32.0,30.0,-100.00,South,181,2.0,4.0,92,-99.99,,,-99.99,,2013-01-24 15:12:00,
2013-01-24 07:22:00,32.0,30.0,-100.00,South,181,2.0,4.0,92,-99.99,,,-99.99,,2013-01-24 15:22:00,
2013-01-24 07:33:00,32.0,30.0,-100.00,South,181,2.0,4.0,92,-99.99,,,-99.99,,2013-01-24 15:33:00,
2013-01-24 07:42:00,32.0,30.0,-100.00,South,184,2.0,6.0,93,-99.99,,,-99.99,,2013-01-24 15:42:00,
2013-01-24 07:53:00,32.0,30.0,-100.00,SSW,195,3.0,6.0,94,-99.99,,,-99.99,,2013-01-24 15:53:00,
2013-01-24 08:03:00,32.0,30.0,-100.00,SSW,198,4.0,8.0,94,-99.99,,,-99.99,,2013-01-24 16:03:00,
2013-01-24 08:12:00,32.0,30.0,-100.00,SSW,198,4.0,8.0,94,-99.99,,,-99.99,,2013-01-24 16:12:00,
2013-01-24 08:21:00,32.0,31.0,-100.00,SW,220,5.0,8.0,95,-99.99,,,-99.99,,2013-01-24 16:21:00,
2013-01-24 08:22:00,32.0,30.0,-100.00,SSW,212,4.0,7.0,94,-99.99,,,-99.99,,2013-01-24 16:22:00,
2013-01-24 08:33:00,32.0,30.0,-100.00,SW,222,4.0,9.0,94,-99.99,,,-99.99,,2013-01-24 16:33:00,
2013-01-24 08:42:00,32.0,30.0,-100.00,SW,222,4.0,9.0,94,-99.99,,,-99.99,,2013-01-24 16:42:00,
2013-01-24 09:01:00,32.0,31.0,-100.00,SW,220,5.0,8.0,95,-99.99,,,-99.99,,2013-01-24 17:01:00,
2013-01-24 09:11:00,32.0,31.0,-100.00,SW,220,5.0,8.0,95,-99.99,,,-99.99,,2013-01-24 17:11:00,
2013-01-24 09:43:00,32.0,31.0,-100.00,SW,223,1.0,3.0,95,-99.99,,,-99.99,,2013-01-24 17:43:00,
2013-01-24 09:52:00,32.0,31.0,-100.00,SW,229,0.0,2.0,95,-99.99,,,-99.99,,2013-01-24 17:52:00,
2013-01-24 10:02:00,32.0,31.0,-100.00,WSW,241,1.0,4.0,95,-99.99,,,-99.99,,2013-01-24 18:02:00,
2013-01-24 10:11:00,32.0,31.0,-100.00,WSW,239,2.0,4.0,95,-99.99,,,-99.99,,2013-01-24 18:11:00,
2013-01-24 10:22:00,32.0,31.0,-100.00,SW,224,2.0,5.0,95,-99.99,,,-99.99,,2013-01-24 18:22:00,
2013-01-24 10:32:00,32.0,31.0,-100.00,SW,215,3.0,5.0,95,-99.99,,,-99.99,,2013-01-24 18:32:00,
2013-01-24 10:42:00,33.0,32.0,-100.00,SW,226,5.0,8.0,95,-99.99,,,-99.99,,2013-01-24 18:42:00,
2013-01-24 10:52:00,33.0,32.0,-100.00,SW,223,6.0,11.0,95,-99.99,,,-99.99,,2013-01-24 18:52:00,
2013-01-24 11:01:00,34.0,32.0,-100.00,SW,220,7.0,12.0,94,-99.99,,,-99.99,,2013-01-24 19:01:00,
2013-01-24 11:12:00,34.0,32.0,-100.00,SW,222,8.0,14.0,95,-99.99,,,-99.99,,2013-01-24 19:12:00,
2013-01-24 11:21:00,34.0,33.0,-100.00,SSW,210,9.0,15.0,95,-99.99,,,-99.99,,2013-01-24 19:21:00,
2013-01-24 11:32:00,34.0,32.0,-100.00,SW,216,9.0,13.0,94,-99.99,,,-99.99,,2013-01-24 19:32:00,
2013-01-24 11:42:00,34.0,33.0,-100.00,SW,216,6.0,12.0,94,-99.99,,,-99.99,,2013-01-24 19:42:00,
2013-01-24 11:51:00,34.0,32.0,-100.00,SW,217,8.0,12.0,94,-99.99,,,-99.99,,2013-01-24 19:51:00,
2013-01-24 12:01:00,34.0,32.0,-100.00,SW,217,8.0,12.0,94,-99.99,,,-99.99,,2013-01-24 20:01:00,
2013-01-24 12:11:00,34.0,32.0,-100.00,SW,219,9.0,13.0,94,-99.99,,,-99.99,,2013-01-24 20:11:00,
2013-01-24 12:22:00,34.0,32.0,-100.00,SSW,213,8.0,15.0,94,-99.99,,,-99.99,,2013-01-24 20:22:00,
2013-01-24 12:32:00,34.0,32.0,-100.00,SW,215,7.0,12.0,94,-99.99,,,-99.99,,2013-01-24 20:32:00,
2013-01-24 12:42:00,34.0,32.0,-100.00,SW,222,7.0,12.0,94,-99.99,,,-99.99,,2013-01-24 20:42:00,
2013-01-24 12:52:00,34.0,32.0,-100.00,SW,223,7.0,11.0,95,-99.99,,,-99.99,,2013-01-24 20:52:00,
2013-01-24 13:02:00,33.0,32.0,-100.00,SW,224,8.0,13.0,95,-99.99,,,-99.99,,2013-01-24 21:02:00,
2013-01-24 13:11:00,33.0,32.0,-100.00,SW,217,7.0,12.0,95,-99.99,,,-99.99,,2013-01-24 21:11:00,
2013-01-24 13:22:00,33.0,32.0,-100.00,SW,217,7.0,12.0,95,-99.99,,,-99.99,,2013-01-24 21:22:00,
2013-01-24 13:32:00,33.0,32.0,-100.00,SW,222,6.0,9.0,95,-99.99,,,-99.99,,2013-01-24 21:32:00,
2013-01-24 13:42:00,33.0,32.0,-100.00,SW,220,7.0,10.0,95,-99.99,,,-99.99,,2013-01-24 21:42:00,
2013-01-24 13:53:00,34.0,32.0,-100.00,SW,217,7.0,11.0,95,-99.99,,,-99.99,,2013-01-24 21:53:00,
2013-01-24 14:02:00,34.0,33.0,-100.00,SW,224,6.0,11.0,95,-99.99,,,-99.99,,2013-01-24 22:02:00,
2013-01-24 14:12:00,33.0,32.0,-100.00,SW,219,7.0,12.0,95,-99.99,,,-99.99,,2013-01-24 22:12:00,
2013-01-24 14:22:00,33.0,32.0,-100.00,SW,220,8.0,12.0,95,-99.99,,,-99.99,,2013-01-24 22:22:00,
2013-01-24 14:32:00,33.0,32.0,-100.00,SW,219,8.0,11.0,96,-99.99,,,-99.99,,2013-01-24 22:32:00,
2013-01-24 14:42:00,33.0,32.0,-100.00,SW,219,8.0,11.0,96,-99.99,,,-99.99,,2013-01-24 22:42:00,
2013-01-24 14:52:00,33.0,32.0,-100.00,SW,222,8.0,13.0,96,-99.99,,,-99.99,,2013-01-24 22:52:00,
2013-01-24 15:02:00,33.0,32.0,-100.00,SW,219,8.0,12.0,95,-99.99,,,-99.99,,2013-01-24 23:02:00,
2013-01-24 15:11:00,33.0,32.0,-100.00,SW,223,7.0,14.0,96,-99.99,,,-99.99,,2013-01-24 23:11:00,
2013-01-24 15:21:00,33.0,32.0,-100.00,SW,222,7.0,11.0,96,-99.99,,,-99.99,,2013-01-24 23:21:00,
2013-01-24 15:32:00,33.0,32.0,-100.00,SW,223,8.0,11.0,96,-99.99,,,-99.99,,2013-01-24 23:32:00,
2013-01-24 15:42:00,33.0,32.0,-100.00,SW,222,7.0,13.0,96,-99.99,,,-99.99,,2013-01-24 23:42:00,
2013-01-24 15:52:00,33.0,32.0,-100.00,SW,222,7.0,11.0,96,-99.99,,,-99.99,,2013-01-24 23:52:00,
2013-01-24 16:02:00,33.0,32.0,-100.00,SW,224,6.0,10.0,96,-99.99,,,-99.99,,2013-01-25 00:02:00,
2013-01-24 16:12:00,33.0,32.0,-100.00,SW,232,6.0,10.0,96,-99.99,,,-99.99,,2013-01-25 00:12:00,
2013-01-24 16:22:00,33.0,32.0,-100.00,SW,220,7.0,11.0,96,-99.99,,,-99.99,,2013-01-25 00:22:00,
2013-01-24 16:32:00,33.0,32.0,-100.00,SW,222,6.0,10.0,96,-99.99,,,-99.99,,2013-01-25 00:32:00,
2013-01-24 16:41:00,33.0,32.0,-100.00,SW,233,3.0,6.0,96,-99.99,,,-99.99,,2013-01-25 00:41:00,
2013-01-24 16:51:00,33.0,32.0,-100.00,SW,233,2.0,5.0,96,-99.99,,,-99.99,,2013-01-25 00:51:00,
2013-01-24 17:01:00,33.0,32.0,-100.00,SW,226,2.0,5.0,96,-99.99,,,-99.99,,2013-01-25 01:01:00,
2013-01-24 17:11:00,33.0,32.0,-100.00,SW,217,2.0,6.0,96,-99.99,,,-99.99,,2013-01-25 01:11:00,
2013-01-24 17:21:00,33.0,32.0,-100.00,SSW,213,1.0,3.0,96,-99.99,,,-99.99,,2013-01-25 01:21:00,
2013-01-24 17:31:00,33.0,32.0,-100.00,SSW,212,0.0,1.0,96,-99.99,,,-99.99,,2013-01-25 01:31:00,
2013-01-24 17:42:00,33.0,32.0,-100.00,SW,232,0.0,0.0,96,-99.99,,,-99.99,,2013-01-25 01:42:00,
2013-01-24 17:52:00,33.0,32.0,-100.00,WSW,240,1.0,3.0,96,-99.99,,,-99.99,,2013-01-25 01:52:00,
2013-01-24 18:02:00,33.0,32.0,-100.00,SW,220,2.0,5.0,96,-99.99,,,-99.99,,2013-01-25 02:02:00,
2013-01-24 18:11:00,33.0,32.0,-100.00,SW,215,3.0,5.0,97,-99.99,,,-99.99,,2013-01-25 02:11:00,
2013-01-24 18:22:00,33.0,32.0,-100.00,SW,216,2.0,5.0,96,-99.99,,,-99.99,,2013-01-25 02:22:00,
2013-01-24 18:32:00,33.0,32.0,-100.00,WSW,241,2.0,4.0,96,-99.99,,,-99.99,,2013-01-25 02:32:00,
2013-01-24 18:42:00,33.0,32.0,-100.00,WSW,241,2.0,4.0,96,-99.99,,,-99.99,,2013-01-25 02:42:00,
2013-01-24 18:52:00,33.0,32.0,-100.00,SW,226,0.0,2.0,96,-99.99,,,-99.99,,2013-01-25 02:52:00,
2013-01-24 19:02:00,33.0,32.0,-100.00,SW,233,0.0,0.0,96,-99.99,,,-99.99,,2013-01-25 03:02:00,
2013-01-24 19:12:00,33.0,32.0,-100.00,SW,216,0.0,2.0,96,-99.99,,,-99.99,,2013-01-25 03:12:00,
2013-01-24 19:21:00,32.0,32.0,-100.00,South,189,0.0,2.0,97,-99.99,,,-99.99,,2013-01-25 03:21:00,
2013-01-24 19:32:00,33.0,32.0,-100.00,SW,220,0.0,2.0,96,-99.99,,,-99.99,,2013-01-25 03:32:00,
2013-01-24 19:41:00,33.0,32.0,-100.00,WNW,287,1.0,3.0,96,-99.99,,,-99.99,,2013-01-25 03:41:00,
2013-01-24 19:52:00,33.0,32.0,-100.00,WNW,284,1.0,2.0,96,-99.99,,,-99.99,,2013-01-25 03:52:00,
2013-01-24 20:02:00,33.0,32.0,-100.00,WNW,284,1.0,2.0,96,-99.99,,,-99.99,,2013-01-25 04:02:00,
2013-01-24 20:11:00,33.0,32.0,-100.00,WNW,284,1.0,2.0,96,-99.99,,,-99.99,,2013-01-25 04:11:00,
2013-01-24 20:41:00,33.0,32.0,-100.00,North,-999,0.0,0.0,97,-99.99,,,-99.99,,2013-01-25 04:41:00,
2013-01-24 21:03:00,32.0,32.0,-100.00,North,-999,0.0,0.0,97,-99.99,,,-99.99,,2013-01-25 05:03:00,
2013-01-24 21:12:00,32.0,32.0,-100.00,North,-999,0.0,0.0,97,-99.99,,,-99.99,,2013-01-25 05:12:00,
2013-01-24 21:22:00,32.0,32.0,-100.00,SW,219,0.0,0.0,97,-99.99,,,-99.99,,2013-01-25 05:22:00,
2013-01-24 21:32:00,32.0,31.0,-100.00,North,-999,0.0,0.0,96,-99.99,,,-99.99,,2013-01-25 05:32:00,
2013-01-24 21:43:00,32.0,31.0,-100.00,North,-999,0.0,0.0,97,-99.99,,,-99.99,,2013-01-25 05:43:00,
2013-01-24 21:52:00,32.0,31.0,-100.00,North,-999,0.0,0.0,97,-99.99,,,-99.99,,2013-01-25 05:52:00,
2013-01-24 22:02:00,32.0,31.0,-100.00,North,-999,0.0,0.0,97,-99.99,,,-99.99,,2013-01-25 06:02:00,
2013-01-24 22:11:00,32.0,31.0,-100.00,North,-999,0.0,0.0,97,-99.99,,,-99.99,,2013-01-25 06:11:00,
2013-01-24 22:21:00,32.0,31.0,-100.00,North,-999,0.0,0.0,96,-99.99,,,-99.99,,2013-01-25 06:21:00,
2013-01-24 22:31:00,32.0,31.0,-100.00,North,-999,0.0,0.0,97,-99.99,,,-99.99,,2013-01-25 06:31:00,
2013-01-24 22:41:00,32.0,31.0,-100.00,NE,52,1.0,4.0,97,-99.99,,,-99.99,,2013-01-25 06:41:00,
2013-01-24 22:51:00,32.0,31.0,-100.00,North,3,2.0,4.0,97,-99.99,,,-99.99,,2013-01-25 06:51:00,
2013-01-24 23:01:00,32.0,31.0,-100.00,SW,230,0.0,2.0,97,-99.99,,,-99.99,,2013-01-25 07:01:00,
2013-01-24 23:11:00,32.0,31.0,-100.00,SSW,192,2.0,3.0,97,-99.99,,,-99.99,,2013-01-25 07:11:00,
2013-01-24 23:21:00,32.0,31.0,-100.00,South,174,1.0,3.0,97,-99.99,,,-99.99,,2013-01-25 07:21:00,
2013-01-24 23:31:00,32.0,31.0,-100.00,SSE,165,1.0,2.0,97,-99.99,,,-99.99,,2013-01-25 07:31:00,
2013-01-24 23:41:00,32.0,31.0,-100.00,SSE,167,0.0,2.0,97,-99.99,,,-99.99,,2013-01-25 07:41:00,
2013-01-24 23:51:00,32.0,31.0,-100.00,SW,217,2.0,3.0,96,-99.99,,,-99.99,,2013-01-25 07:51:00,